Startpagina
METAR-TAF:

METAR-TAF

Vliegvelden :

Rarotonga, Cookeilanden

breedte: 21-12S, lengte: 159-49W, hoogte: 7 m

Actueel weer

Dit bericht is 1 uur en het 3 minuten geleden gemaakt, om 10:00 UTC
Wind 4 kt uit het oostzuidoosten
Temperatuur 26°C
Vochtigheid 89%
Druk 1015 hPa
Zicht 10 km of meer
Verspreide wolken op 1800 ft

METAR: NCRG 261000Z 11004KT 9999 SCT018 26/24 Q1015 RMK DEW

Tijdstip: 01:03 (11:03 UTC)

Verwachting

Dit bericht is 5 uur en het 36 minuten geleden gemaakt, om 05:27 UTC
Verwachting geldig van 26 om 06 UTC tot 27 om 06 UTC
Wind 5 kt uit het oostnoordoosten
Zicht 10 km of meer
Verspreide wolken op 2000 ft
Verspreide wolken op 5000 ft
Kans 30% :
Tijdelijke
van 26 om 06 UTC tot 26 om 12 UTC
Zicht: 5000 m
Gebroken wolken op 1500 ft
regenbuien

TAF: NCRG 260527Z 2606/2706 06005KT 9999 SCT020 SCT050 PROB30 TEMPO 2606/2612 5000 SHRA BKN015

Waarnemingen en weersverwachtingen van meer dan 4000 vliegvelden (METAR en TAF).

De beschikbare stations zijn de gele en rode punten op de kaart.

Ga met uw muis naar het station om de naam te zien.

Klik dan om waarnemingen en weersverwachtingen te zien.

kaart wijzigen: klik op de groene knoppen met een zwart kruis om in te zoomen, op de groene knop met een streepje om uit te zoomen of op de groene pijlen voor aangrenzende kaarten.


METAR-TAF: